sensor_id;sensor_type;location;lat;lon;timestamp;pressure;altitude;pressure_sealevel;temperature;humidity
20825;BME280;10573;50.936;6.978;2023-02-12T00:00:39;103415.75;;;10.20;70.84
20825;BME280;10573;50.936;6.978;2023-02-12T00:03:05;103419.78;;;10.11;70.80
20825;BME280;10573;50.936;6.978;2023-02-12T00:05:30;103421.00;;;10.05;71.28
20825;BME280;10573;50.936;6.978;2023-02-12T00:07:56;103420.31;;;10.00;71.16
20825;BME280;10573;50.936;6.978;2023-02-12T00:10:21;103417.19;;;9.90;71.61
20825;BME280;10573;50.936;6.978;2023-02-12T00:12:47;103417.59;;;10.00;71.41
20825;BME280;10573;50.936;6.978;2023-02-12T00:15:12;103415.19;;;9.94;71.57
20825;BME280;10573;50.936;6.978;2023-02-12T00:17:38;103413.66;;;9.88;71.62
20825;BME280;10573;50.936;6.978;2023-02-12T00:20:04;103413.88;;;9.84;71.74
20825;BME280;10573;50.936;6.978;2023-02-12T00:22:29;103418.28;;;9.86;71.80
20825;BME280;10573;50.936;6.978;2023-02-12T00:24:55;103415.03;;;9.97;71.54
20825;BME280;10573;50.936;6.978;2023-02-12T00:27:22;103416.81;;;9.98;71.43
20825;BME280;10573;50.936;6.978;2023-02-12T00:29:47;103412.84;;;9.86;71.45
20825;BME280;10573;50.936;6.978;2023-02-12T00:32:12;103415.63;;;10.04;71.25
20825;BME280;10573;50.936;6.978;2023-02-12T00:34:39;103412.09;;;10.02;70.79
20825;BME280;10573;50.936;6.978;2023-02-12T00:37:05;103411.81;;;9.89;70.97
20825;BME280;10573;50.936;6.978;2023-02-12T00:39:30;103406.59;;;10.03;70.50
20825;BME280;10573;50.936;6.978;2023-02-12T00:41:56;103407.75;;;10.34;69.47
20825;BME280;10573;50.936;6.978;2023-02-12T00:44:21;103406.44;;;10.24;69.94
20825;BME280;10573;50.936;6.978;2023-02-12T00:46:47;103408.88;;;10.30;69.08
20825;BME280;10573;50.936;6.978;2023-02-12T00:49:12;103409.75;;;10.31;69.17
20825;BME280;10573;50.936;6.978;2023-02-12T00:51:38;103400.97;;;10.43;68.36
20825;BME280;10573;50.936;6.978;2023-02-12T00:54:04;103406.69;;;10.56;68.28
20825;BME280;10573;50.936;6.978;2023-02-12T00:56:29;103414.53;;;10.45;68.27
20825;BME280;10573;50.936;6.978;2023-02-12T00:58:54;103413.91;;;10.39;68.93
20825;BME280;10573;50.936;6.978;2023-02-12T01:01:20;103413.91;;;10.39;69.03
20825;BME280;10573;50.936;6.978;2023-02-12T01:03:45;103409.66;;;10.32;68.86
20825;BME280;10573;50.936;6.978;2023-02-12T01:06:11;103407.91;;;10.31;69.08
20825;BME280;10573;50.936;6.978;2023-02-12T01:08:36;103404.13;;;10.35;68.92
20825;BME280;10573;50.936;6.978;2023-02-12T01:11:03;103410.53;;;10.52;68.33
20825;BME280;10573;50.936;6.978;2023-02-12T01:13:30;103408.03;;;10.47;68.06
20825;BME280;10573;50.936;6.978;2023-02-12T01:16:23;103412.91;;;10.40;68.75
20825;BME280;10573;50.936;6.978;2023-02-12T01:18:50;103413.50;;;10.28;69.11
20825;BME280;10573;50.936;6.978;2023-02-12T01:21:25;103415.03;;;10.53;68.40
20825;BME280;10573;50.936;6.978;2023-02-12T01:23:50;103418.38;;;10.40;68.79
20825;BME280;10573;50.936;6.978;2023-02-12T01:26:17;103415.03;;;10.35;68.95
20825;BME280;10573;50.936;6.978;2023-02-12T01:28:48;103410.75;;;10.11;69.74
20825;BME280;10573;50.936;6.978;2023-02-12T01:31:17;103412.19;;;10.18;69.65
20825;BME280;10573;50.936;6.978;2023-02-12T01:33:46;103416.66;;;10.01;69.82
20825;BME280;10573;50.936;6.978;2023-02-12T01:36:12;103410.50;;;9.98;70.22
20825;BME280;10573;50.936;6.978;2023-02-12T01:38:38;103414.50;;;10.08;70.16
20825;BME280;10573;50.936;6.978;2023-02-12T01:41:05;103411.06;;;10.04;69.90
20825;BME280;10573;50.936;6.978;2023-02-12T01:43:35;103403.34;;;9.95;70.36
20825;BME280;10573;50.936;6.978;2023-02-12T01:46:04;103409.47;;;9.81;70.93
20825;BME280;10573;50.936;6.978;2023-02-12T01:48:43;103411.59;;;9.74;71.12
20825;BME280;10573;50.936;6.978;2023-02-12T01:51:11;103413.59;;;9.71;71.37
20825;BME280;10573;50.936;6.978;2023-02-12T01:53:43;103406.66;;;9.83;70.88
20825;BME280;10573;50.936;6.978;2023-02-12T01:56:12;103407.25;;;9.70;71.13
20825;BME280;10573;50.936;6.978;2023-02-12T01:58:40;103411.59;;;9.74;71.40
20825;BME280;10573;50.936;6.978;2023-02-12T02:01:10;103405.66;;;9.66;71.64
20825;BME280;10573;50.936;6.978;2023-02-12T02:03:38;103406.06;;;9.76;71.25
20825;BME280;10573;50.936;6.978;2023-02-12T02:06:10;103410.34;;;9.63;71.67
20825;BME280;10573;50.936;6.978;2023-02-12T02:08:37;103403.50;;;9.54;71.82
20825;BME280;10573;50.936;6.978;2023-02-12T02:11:03;103404.97;;;9.61;71.78
20825;BME280;10573;50.936;6.978;2023-02-12T02:13:49;103403.16;;;9.62;71.63
20825;BME280;10573;50.936;6.978;2023-02-12T02:16:34;103413.81;;;9.66;71.49
20825;BME280;10573;50.936;6.978;2023-02-12T02:19:08;103406.97;;;9.57;71.36
20825;BME280;10573;50.936;6.978;2023-02-12T02:22:16;103404.97;;;9.61;71.36
20825;BME280;10573;50.936;6.978;2023-02-12T02:25:12;103406.38;;;9.51;71.76
20825;BME280;10573;50.936;6.978;2023-02-12T02:30:43;103405.22;;;9.17;72.98
20825;BME280;10573;50.936;6.978;2023-02-12T02:33:50;103404.53;;;9.32;72.73
20825;BME280;10573;50.936;6.978;2023-02-12T02:36:13;103403.09;;;9.23;72.83
20825;BME280;10573;50.936;6.978;2023-02-12T02:38:49;103399.69;;;9.18;73.28
20825;BME280;10573;50.936;6.978;2023-02-12T02:43:51;103394.75;;;9.07;73.65
20825;BME280;10573;50.936;6.978;2023-02-12T02:46:26;103392.63;;;9.14;73.74
20825;BME280;10573;50.936;6.978;2023-02-12T02:49:01;103393.66;;;9.12;73.80
20825;BME280;10573;50.936;6.978;2023-02-12T02:51:33;103394.22;;;9.20;73.07
20825;BME280;10573;50.936;6.978;2023-02-12T02:54:28;103388.41;;;9.28;72.77
20825;BME280;10573;50.936;6.978;2023-02-12T02:57:02;103393.16;;;9.22;73.36
20825;BME280;10573;50.936;6.978;2023-02-12T02:59:34;103388.81;;;9.18;73.29
20825;BME280;10573;50.936;6.978;2023-02-12T03:02:07;103383.72;;;9.31;72.73
20825;BME280;10573;50.936;6.978;2023-02-12T03:04:43;103392.81;;;9.30;73.08
20825;BME280;10573;50.936;6.978;2023-02-12T03:07:16;103398.00;;;9.36;72.90
20825;BME280;10573;50.936;6.978;2023-02-12T03:09:51;103392.22;;;9.23;73.41
20825;BME280;10573;50.936;6.978;2023-02-12T03:12:27;103391.34;;;9.23;73.53
20825;BME280;10573;50.936;6.978;2023-02-12T03:15:38;103387.69;;;9.24;73.60
20825;BME280;10573;50.936;6.978;2023-02-12T03:18:09;103396.38;;;9.32;73.32
20825;BME280;10573;50.936;6.978;2023-02-12T03:20:42;103401.13;;;9.27;72.85
20825;BME280;10573;50.936;6.978;2023-02-12T03:23:13;103394.41;;;9.15;73.27
20825;BME280;10573;50.936;6.978;2023-02-12T03:26:09;103389.72;;;9.19;73.40
20825;BME280;10573;50.936;6.978;2023-02-12T03:28:37;103389.72;;;9.19;73.53
20825;BME280;10573;50.936;6.978;2023-02-12T03:33:43;103390.53;;;9.21;73.55
20825;BME280;10573;50.936;6.978;2023-02-12T03:36:25;103389.56;;;9.22;73.35
20825;BME280;10573;50.936;6.978;2023-02-12T03:38:54;103385.38;;;9.15;73.54
20825;BME280;10573;50.936;6.978;2023-02-12T03:41:26;103392.81;;;9.30;73.10
20825;BME280;10573;50.936;6.978;2023-02-12T03:44:23;103388.97;;;9.15;73.55
20825;BME280;10573;50.936;6.978;2023-02-12T03:47:04;103390.53;;;9.21;73.63
20825;BME280;10573;50.936;6.978;2023-02-12T03:49:38;103386.59;;;9.28;73.21
20825;BME280;10573;50.936;6.978;2023-02-12T03:52:07;103389.56;;;9.22;73.30
20825;BME280;10573;50.936;6.978;2023-02-12T03:54:32;103390.34;;;9.05;73.49
20825;BME280;10573;50.936;6.978;2023-02-12T03:57:09;103387.69;;;9.03;74.32
20825;BME280;10573;50.936;6.978;2023-02-12T03:59:37;103390.53;;;9.21;73.60
20825;BME280;10573;50.936;6.978;2023-02-12T04:02:04;103389.59;;;9.41;72.55
20825;BME280;10573;50.936;6.978;2023-02-12T04:04:30;103393.06;;;9.45;72.14
20825;BME280;10573;50.936;6.978;2023-02-12T04:06:56;103396.00;;;9.00;73.11
20825;BME280;10573;50.936;6.978;2023-02-12T04:09:23;103390.16;;;9.10;73.38
20825;BME280;10573;50.936;6.978;2023-02-12T04:17:05;103396.94;;;9.20;73.44
20825;BME280;10573;50.936;6.978;2023-02-12T04:22:14;103404.84;;;9.05;73.36
20825;BME280;10573;50.936;6.978;2023-02-12T04:27:31;103409.03;;;9.13;73.24
20825;BME280;10573;50.936;6.978;2023-02-12T04:35:21;103413.13;;;9.23;72.84
20825;BME280;10573;50.936;6.978;2023-02-12T04:37:51;103418.69;;;9.20;72.72
20825;BME280;10573;50.936;6.978;2023-02-12T04:40:19;103421.44;;;9.20;72.76
20825;BME280;10573;50.936;6.978;2023-02-12T04:42:48;103420.56;;;8.99;73.38
20825;BME280;10573;50.936;6.978;2023-02-12T04:45:21;103411.31;;;9.03;73.51
20825;BME280;10573;50.936;6.978;2023-02-12T04:47:47;103418.69;;;9.20;73.18
20825;BME280;10573;50.936;6.978;2023-02-12T04:50:13;103414.13;;;9.20;72.91
20825;BME280;10573;50.936;6.978;2023-02-12T04:52:38;103420.81;;;9.13;73.28
20825;BME280;10573;50.936;6.978;2023-02-12T04:55:04;103422.84;;;9.08;73.01
20825;BME280;10573;50.936;6.978;2023-02-12T04:57:30;103422.47;;;9.16;72.90
20825;BME280;10573;50.936;6.978;2023-02-12T04:59:55;103425.13;;;9.57;71.62
20825;BME280;10573;50.936;6.978;2023-02-12T05:02:20;103422.13;;;9.44;71.70
20825;BME280;10573;50.936;6.978;2023-02-12T05:04:48;103426.69;;;9.63;71.50
20825;BME280;10573;50.936;6.978;2023-02-12T05:07:13;103420.94;;;9.69;71.22
20825;BME280;10573;50.936;6.978;2023-02-12T05:09:39;103421.22;;;9.63;70.96
20825;BME280;10573;50.936;6.978;2023-02-12T05:12:04;103424.63;;;9.49;71.58
20825;BME280;10573;50.936;6.978;2023-02-12T05:14:30;103424.97;;;9.60;71.57
20825;BME280;10573;50.936;6.978;2023-02-12T05:16:55;103414.84;;;9.45;71.97
20825;BME280;10573;50.936;6.978;2023-02-12T05:19:21;103427.34;;;9.49;71.96
20825;BME280;10573;50.936;6.978;2023-02-12T05:21:48;103410.13;;;9.67;71.24
20825;BME280;10573;50.936;6.978;2023-02-12T05:24:14;103417.03;;;9.55;71.39
20825;BME280;10573;50.936;6.978;2023-02-12T05:26:40;103415.66;;;9.47;71.54
20825;BME280;10573;50.936;6.978;2023-02-12T05:29:05;103424.25;;;9.37;71.71
20825;BME280;10573;50.936;6.978;2023-02-12T05:31:30;103417.56;;;9.45;71.64
20825;BME280;10573;50.936;6.978;2023-02-12T05:33:56;103421.28;;;9.42;71.76
20825;BME280;10573;50.936;6.978;2023-02-12T05:36:22;103426.53;;;9.47;71.77
20825;BME280;10573;50.936;6.978;2023-02-12T05:38:48;103430.56;;;9.57;71.07
20825;BME280;10573;50.936;6.978;2023-02-12T05:41:17;103432.00;;;9.47;71.30
20825;BME280;10573;50.936;6.978;2023-02-12T05:43:43;103434.63;;;9.48;71.79
20825;BME280;10573;50.936;6.978;2023-02-12T05:46:09;103429.28;;;9.26;71.65
20825;BME280;10573;50.936;6.978;2023-02-12T05:48:36;103434.75;;;9.45;71.64
20825;BME280;10573;50.936;6.978;2023-02-12T05:51:11;103435.50;;;9.49;70.99
20825;BME280;10573;50.936;6.978;2023-02-12T05:53:38;103442.88;;;9.47;71.03
20825;BME280;10573;50.936;6.978;2023-02-12T05:56:21;103443.56;;;9.31;71.40
20825;BME280;10573;50.936;6.978;2023-02-12T05:58:51;103441.44;;;9.38;71.45
20825;BME280;10573;50.936;6.978;2023-02-12T06:01:22;103439.59;;;9.38;71.25
20825;BME280;10573;50.936;6.978;2023-02-12T06:03:48;103443.00;;;9.63;70.52
20825;BME280;10573;50.936;6.978;2023-02-12T06:06:14;103442.41;;;9.56;70.40
20825;BME280;10573;50.936;6.978;2023-02-12T06:08:40;103442.09;;;9.24;71.09
20825;BME280;10573;50.936;6.978;2023-02-12T06:11:08;103443.28;;;9.37;71.43
20825;BME280;10573;50.936;6.978;2023-02-12T06:13:35;103443.91;;;9.44;71.01
20825;BME280;10573;50.936;6.978;2023-02-12T06:16:00;103439.31;;;9.45;71.20
20825;BME280;10573;50.936;6.978;2023-02-12T06:18:26;103437.63;;;9.61;70.35
20825;BME280;10573;50.936;6.978;2023-02-12T06:20:51;103442.56;;;9.53;70.63
20825;BME280;10573;50.936;6.978;2023-02-12T06:23:22;103444.75;;;9.45;70.47
20825;BME280;10573;50.936;6.978;2023-02-12T06:25:49;103445.94;;;9.39;70.96
20825;BME280;10573;50.936;6.978;2023-02-12T06:28:15;103442.41;;;9.56;70.52
20825;BME280;10573;50.936;6.978;2023-02-12T06:30:41;103439.56;;;9.59;70.36
20825;BME280;10573;50.936;6.978;2023-02-12T06:33:07;103442.88;;;9.47;70.47
20825;BME280;10573;50.936;6.978;2023-02-12T06:35:35;103447.56;;;9.43;70.62
20825;BME280;10573;50.936;6.978;2023-02-12T06:38:01;103444.81;;;9.24;71.21
20825;BME280;10573;50.936;6.978;2023-02-12T06:40:27;103433.59;;;9.51;70.39
20825;BME280;10573;50.936;6.978;2023-02-12T06:42:52;103433.09;;;9.62;69.70
20825;BME280;10573;50.936;6.978;2023-02-12T06:45:17;103435.47;;;9.30;70.46
20825;BME280;10573;50.936;6.978;2023-02-12T06:47:43;103448.75;;;9.37;70.44
20825;BME280;10573;50.936;6.978;2023-02-12T06:50:08;103455.50;;;9.48;69.85
20825;BME280;10573;50.936;6.978;2023-02-12T06:52:34;103451.41;;;9.58;69.81
20825;BME280;10573;50.936;6.978;2023-02-12T06:54:59;103463.84;;;9.24;70.93
20825;BME280;10573;50.936;6.978;2023-02-12T06:57:25;103454.72;;;9.25;71.09
20825;BME280;10573;50.936;6.978;2023-02-12T06:59:50;103465.19;;;9.34;71.06
20825;BME280;10573;50.936;6.978;2023-02-12T07:02:15;103463.56;;;9.30;71.22
20825;BME280;10573;50.936;6.978;2023-02-12T07:04:41;103465.06;;;9.37;70.83
20825;BME280;10573;50.936;6.978;2023-02-12T07:07:06;103474.38;;;9.32;70.76
20825;BME280;10573;50.936;6.978;2023-02-12T07:09:32;103470.38;;;9.20;71.16
20825;BME280;10573;50.936;6.978;2023-02-12T07:11:58;103470.69;;;9.33;71.09
20825;BME280;10573;50.936;6.978;2023-02-12T07:14:23;103479.31;;;9.43;70.71
20825;BME280;10573;50.936;6.978;2023-02-12T07:16:50;103481.09;;;9.44;70.82
20825;BME280;10573;50.936;6.978;2023-02-12T07:19:16;103478.28;;;9.45;70.41
20825;BME280;10573;50.936;6.978;2023-02-12T07:21:42;103481.38;;;9.37;70.62
20825;BME280;10573;50.936;6.978;2023-02-12T07:24:10;103485.66;;;9.43;70.42
20825;BME280;10573;50.936;6.978;2023-02-12T07:26:37;103480.91;;;9.48;70.54
20825;BME280;10573;50.936;6.978;2023-02-12T07:29:02;103484.22;;;9.55;70.48
20825;BME280;10573;50.936;6.978;2023-02-12T07:31:28;103487.31;;;9.66;69.90
20825;BME280;10573;50.936;6.978;2023-02-12T07:33:56;103492.72;;;9.47;70.40
20825;BME280;10573;50.936;6.978;2023-02-12T07:36:22;103491.84;;;9.47;70.13
20825;BME280;10573;50.936;6.978;2023-02-12T07:38:48;103498.84;;;9.32;71.03
20825;BME280;10573;50.936;6.978;2023-02-12T07:43:42;103504.03;;;9.78;70.53
20825;BME280;10573;50.936;6.978;2023-02-12T07:46:19;103500.41;;;9.96;69.80
20825;BME280;10573;50.936;6.978;2023-02-12T07:48:45;103502.88;;;9.63;69.68
20825;BME280;10573;50.936;6.978;2023-02-12T07:51:14;103500.84;;;9.68;69.99
20825;BME280;10573;50.936;6.978;2023-02-12T07:53:40;103506.38;;;9.66;70.24
20825;BME280;10573;50.936;6.978;2023-02-12T07:58:36;103514.34;;;9.50;70.17
20825;BME280;10573;50.936;6.978;2023-02-12T08:01:11;103510.59;;;9.53;70.37
20825;BME280;10573;50.936;6.978;2023-02-12T08:03:37;103511.69;;;9.49;70.86
20825;BME280;10573;50.936;6.978;2023-02-12T08:06:10;103510.00;;;9.46;70.55
20825;BME280;10573;50.936;6.978;2023-02-12T08:08:35;103511.56;;;9.52;70.62
20825;BME280;10573;50.936;6.978;2023-02-12T08:11:04;103509.75;;;9.71;71.17
20825;BME280;10573;50.936;6.978;2023-02-12T08:13:31;103511.75;;;9.87;69.81
20825;BME280;10573;50.936;6.978;2023-02-12T08:16:06;103515.47;;;9.86;69.89
20825;BME280;10573;50.936;6.978;2023-02-12T08:18:33;103517.06;;;9.90;70.05
20825;BME280;10573;50.936;6.978;2023-02-12T08:21:10;103521.50;;;10.12;69.60
20825;BME280;10573;50.936;6.978;2023-02-12T08:23:36;103521.66;;;10.08;69.49
20825;BME280;10573;50.936;6.978;2023-02-12T08:26:13;103524.16;;;9.94;69.47
20825;BME280;10573;50.936;6.978;2023-02-12T08:28:45;103523.25;;;9.94;69.92
20825;BME280;10573;50.936;6.978;2023-02-12T08:31:13;103516.41;;;9.85;69.62
20825;BME280;10573;50.936;6.978;2023-02-12T08:33:39;103515.53;;;10.03;69.12
20825;BME280;10573;50.936;6.978;2023-02-12T08:36:10;103516.22;;;10.08;69.07
20825;BME280;10573;50.936;6.978;2023-02-12T08:38:37;103528.91;;;9.89;69.20
20825;BME280;10573;50.936;6.978;2023-02-12T08:41:06;103525.91;;;9.95;69.45
20825;BME280;10573;50.936;6.978;2023-02-12T08:43:32;103532.78;;;9.64;70.19
20825;BME280;10573;50.936;6.978;2023-02-12T08:46:06;103537.50;;;9.80;69.82
20825;BME280;10573;50.936;6.978;2023-02-12T08:48:32;103530.34;;;9.98;69.37
20825;BME280;10573;50.936;6.978;2023-02-12T08:51:13;103530.19;;;10.01;69.37
20825;BME280;10573;50.936;6.978;2023-02-12T08:53:42;103531.03;;;9.82;69.76
20825;BME280;10573;50.936;6.978;2023-02-12T08:56:09;103526.19;;;10.08;69.36
20825;BME280;10573;50.936;6.978;2023-02-12T08:58:35;103532.91;;;10.20;68.56
20825;BME280;10573;50.936;6.978;2023-02-12T09:01:02;103528.84;;;10.10;68.77
20825;BME280;10573;50.936;6.978;2023-02-12T09:03:28;103527.59;;;10.17;68.87
20825;BME280;10573;50.936;6.978;2023-02-12T09:05:53;103526.34;;;10.24;68.32
20825;BME280;10573;50.936;6.978;2023-02-12T09:08:19;103527.72;;;10.14;68.93
20825;BME280;10573;50.936;6.978;2023-02-12T09:10:45;103528.63;;;10.33;68.38
20825;BME280;10573;50.936;6.978;2023-02-12T09:13:12;103526.06;;;10.30;68.44
20825;BME280;10573;50.936;6.978;2023-02-12T09:15:42;103528.78;;;10.49;67.75
20825;BME280;10573;50.936;6.978;2023-02-12T09:18:10;103536.47;;;10.41;67.61
20825;BME280;10573;50.936;6.978;2023-02-12T09:20:38;103537.09;;;10.65;67.55
20825;BME280;10573;50.936;6.978;2023-02-12T09:23:08;103530.59;;;10.30;68.36
20825;BME280;10573;50.936;6.978;2023-02-12T09:25:38;103540.66;;;10.48;67.91
20825;BME280;10573;50.936;6.978;2023-02-12T09:28:04;103528.66;;;10.70;67.60
20825;BME280;10573;50.936;6.978;2023-02-12T09:30:29;103533.13;;;10.53;68.00
20825;BME280;10573;50.936;6.978;2023-02-12T09:32:55;103531.75;;;10.62;68.02
20825;BME280;10573;50.936;6.978;2023-02-12T09:35:21;103531.56;;;10.67;67.86
20825;BME280;10573;50.936;6.978;2023-02-12T09:37:46;103536.16;;;10.84;67.64
20825;BME280;10573;50.936;6.978;2023-02-12T09:40:21;103523.94;;;10.73;67.38
20825;BME280;10573;50.936;6.978;2023-02-12T09:45:43;103523.06;;;10.73;67.79
20825;BME280;10573;50.936;6.978;2023-02-12T09:48:24;103524.94;;;11.25;66.39
20825;BME280;10573;50.936;6.978;2023-02-12T09:50:54;103527.53;;;11.11;66.81
20825;BME280;10573;50.936;6.978;2023-02-12T09:53:24;103526.06;;;11.21;66.44
20825;BME280;10573;50.936;6.978;2023-02-12T09:55:52;103527.41;;;11.47;65.81
20825;BME280;10573;50.936;6.978;2023-02-12T09:58:42;103531.84;;;11.32;66.23
20825;BME280;10573;50.936;6.978;2023-02-12T10:01:11;103532.97;;;11.11;66.75
20825;BME280;10573;50.936;6.978;2023-02-12T10:03:38;103541.38;;;11.06;66.78
20825;BME280;10573;50.936;6.978;2023-02-12T10:06:06;103534.31;;;11.02;66.82
20825;BME280;10573;50.936;6.978;2023-02-12T10:09:09;103539.47;;;11.08;66.81
20825;BME280;10573;50.936;6.978;2023-02-12T10:11:53;103546.19;;;11.18;66.87
20825;BME280;10573;50.936;6.978;2023-02-12T10:14:47;103545.97;;;11.23;66.58
20825;BME280;10573;50.936;6.978;2023-02-12T10:17:50;103544.84;;;11.45;66.21
20825;BME280;10573;50.936;6.978;2023-02-12T10:20:26;103537.03;;;11.88;64.56
20825;BME280;10573;50.936;6.978;2023-02-12T10:25:55;103532.75;;;12.00;64.13
20825;BME280;10573;50.936;6.978;2023-02-12T10:28:27;103541.34;;;11.92;63.72
20825;BME280;10573;50.936;6.978;2023-02-12T10:30:59;103543.38;;;12.06;63.57
20825;BME280;10573;50.936;6.978;2023-02-12T10:33:38;103548.44;;;11.96;63.58
20825;BME280;10573;50.936;6.978;2023-02-12T10:38:52;103545.94;;;12.25;62.47
20825;BME280;10573;50.936;6.978;2023-02-12T10:41:21;103538.59;;;12.41;62.02
20825;BME280;10573;50.936;6.978;2023-02-12T10:43:47;103531.19;;;12.12;62.55
20825;BME280;10573;50.936;6.978;2023-02-12T10:46:16;103532.25;;;12.09;62.95
20825;BME280;10573;50.936;6.978;2023-02-12T10:48:47;103522.56;;;12.03;62.57
20825;BME280;10573;50.936;6.978;2023-02-12T10:53:51;103528.81;;;12.37;62.07
20825;BME280;10573;50.936;6.978;2023-02-12T10:56:23;103521.16;;;12.28;62.41
20825;BME280;10573;50.936;6.978;2023-02-12T10:58:56;103521.97;;;12.76;61.30
20825;BME280;10573;50.936;6.978;2023-02-12T11:01:32;103517.06;;;12.51;61.30
20825;BME280;10573;50.936;6.978;2023-02-12T11:04:00;103522.00;;;12.45;61.59
20825;BME280;10573;50.936;6.978;2023-02-12T11:06:55;103520.19;;;12.75;60.54
20825;BME280;10573;50.936;6.978;2023-02-12T11:09:41;103518.84;;;12.36;61.61
20825;BME280;10573;50.936;6.978;2023-02-12T11:12:25;103514.72;;;12.75;60.29
20825;BME280;10573;50.936;6.978;2023-02-12T11:14:54;103520.94;;;12.63;61.28
20825;BME280;10573;50.936;6.978;2023-02-12T11:17:40;103515.56;;;12.62;61.18
20825;BME280;10573;50.936;6.978;2023-02-12T11:20:38;103512.44;;;12.84;60.10
20825;BME280;10573;50.936;6.978;2023-02-12T11:23:21;103505.78;;;12.57;61.16
20825;BME280;10573;50.936;6.978;2023-02-12T11:25:57;103511.69;;;12.96;60.20
20825;BME280;10573;50.936;6.978;2023-02-12T11:28:23;103506.22;;;12.96;59.58
20825;BME280;10573;50.936;6.978;2023-02-12T11:30:53;103499.91;;;12.80;60.14
20825;BME280;10573;50.936;6.978;2023-02-12T11:33:31;103506.06;;;12.83;60.39
20825;BME280;10573;50.936;6.978;2023-02-12T11:36:12;103501.38;;;12.55;61.06
20825;BME280;10573;50.936;6.978;2023-02-12T11:38:49;103488.56;;;12.55;59.98
20825;BME280;10573;50.936;6.978;2023-02-12T11:43:50;103486.88;;;12.99;60.33
20825;BME280;10573;50.936;6.978;2023-02-12T11:46:22;103491.19;;;13.03;59.70
20825;BME280;10573;50.936;6.978;2023-02-12T11:48:50;103479.09;;;13.22;58.64
20825;BME280;10573;50.936;6.978;2023-02-12T11:51:20;103483.53;;;12.94;58.59
20825;BME280;10573;50.936;6.978;2023-02-12T11:53:51;103479.66;;;12.68;59.02
20825;BME280;10573;50.936;6.978;2023-02-12T11:56:17;103474.81;;;13.32;58.31
20825;BME280;10573;50.936;6.978;2023-02-12T11:58:44;103472.31;;;13.43;57.24
20825;BME280;10573;50.936;6.978;2023-02-12T12:01:33;103479.41;;;13.32;57.69
20825;BME280;10573;50.936;6.978;2023-02-12T12:04:11;103466.72;;;12.86;58.52
20825;BME280;10573;50.936;6.978;2023-02-12T12:06:50;103467.00;;;12.96;58.32
20825;BME280;10573;50.936;6.978;2023-02-12T12:09:24;103459.84;;;12.79;58.45
20825;BME280;10573;50.936;6.978;2023-02-12T12:12:16;103461.91;;;13.34;57.38
20825;BME280;10573;50.936;6.978;2023-02-12T12:17:55;103452.94;;;12.87;58.35
20825;BME280;10573;50.936;6.978;2023-02-12T12:20:49;103454.75;;;13.32;58.21
20825;BME280;10573;50.936;6.978;2023-02-12T12:23:33;103453.78;;;13.33;58.27
20825;BME280;10573;50.936;6.978;2023-02-12T12:26:19;103448.25;;;13.63;56.66
20825;BME280;10573;50.936;6.978;2023-02-12T12:31:36;103438.16;;;13.78;56.50
20825;BME280;10573;50.936;6.978;2023-02-12T12:34:12;103445.69;;;13.31;57.31
20825;BME280;10573;50.936;6.978;2023-02-12T12:43:15;103429.03;;;13.34;57.11
20825;BME280;10573;50.936;6.978;2023-02-12T12:48:41;103413.13;;;14.12;55.44
20825;BME280;10573;50.936;6.978;2023-02-12T12:54:40;103416.38;;;13.48;56.99
20825;BME280;10573;50.936;6.978;2023-02-12T12:57:22;103415.06;;;13.82;56.25
20825;BME280;10573;50.936;6.978;2023-02-12T13:00:26;103402.41;;;13.94;55.95
20825;BME280;10573;50.936;6.978;2023-02-12T13:03:31;103405.75;;;13.85;56.05
20825;BME280;10573;50.936;6.978;2023-02-12T13:09:10;103392.19;;;13.25;57.27
20825;BME280;10573;50.936;6.978;2023-02-12T13:17:16;103396.38;;;13.74;57.88
20825;BME280;10573;50.936;6.978;2023-02-12T13:20:09;103393.06;;;13.26;57.35
20825;BME280;10573;50.936;6.978;2023-02-12T13:23:02;103384.25;;;13.35;57.47
20825;BME280;10573;50.936;6.978;2023-02-12T13:28:13;103379.34;;;13.69;57.53
20825;BME280;10573;50.936;6.978;2023-02-12T13:30:46;103380.06;;;13.44;57.97
20825;BME280;10573;50.936;6.978;2023-02-12T13:33:22;103381.94;;;13.43;57.80
20825;BME280;10573;50.936;6.978;2023-02-12T13:35:53;103379.75;;;13.34;58.62
20825;BME280;10573;50.936;6.978;2023-02-12T13:38:26;103375.00;;;13.52;57.97
20825;BME280;10573;50.936;6.978;2023-02-12T13:40:57;103371.34;;;13.66;57.82
20825;BME280;10573;50.936;6.978;2023-02-12T13:46:37;103378.72;;;13.37;58.26
20825;BME280;10573;50.936;6.978;2023-02-12T13:57:38;103370.66;;;13.63;56.76
20825;BME280;10573;50.936;6.978;2023-02-12T14:00:04;103356.25;;;13.73;57.36
20825;BME280;10573;50.936;6.978;2023-02-12T14:05:04;103350.25;;;13.54;57.33
20825;BME280;10573;50.936;6.978;2023-02-12T14:07:51;103351.22;;;13.53;58.27
20825;BME280;10573;50.936;6.978;2023-02-12T14:12:45;103351.22;;;13.53;58.30
20825;BME280;10573;50.936;6.978;2023-02-12T14:15:41;103355.03;;;13.50;58.16
20825;BME280;10573;50.936;6.978;2023-02-12T14:18:36;103345.72;;;13.53;58.07
20825;BME280;10573;50.936;6.978;2023-02-12T14:23:37;103350.53;;;13.49;58.16
20825;BME280;10573;50.936;6.978;2023-02-12T14:26:16;103353.38;;;13.48;58.07
20825;BME280;10573;50.936;6.978;2023-02-12T14:29:01;103344.09;;;13.77;57.63
20825;BME280;10573;50.936;6.978;2023-02-12T14:31:32;103351.59;;;13.47;57.58
20825;BME280;10573;50.936;6.978;2023-02-12T14:50:14;103355.28;;;13.60;57.67
20825;BME280;10573;50.936;6.978;2023-02-12T14:52:44;103355.59;;;13.55;57.35
20825;BME280;10573;50.936;6.978;2023-02-12T14:55:26;103354.31;;;13.61;57.33
20825;BME280;10573;50.936;6.978;2023-02-12T14:58:01;103350.50;;;13.64;57.81
20825;BME280;10573;50.936;6.978;2023-02-12T15:00:31;103346.53;;;13.40;58.52
20825;BME280;10573;50.936;6.978;2023-02-12T15:03:16;103351.81;;;13.43;58.05
20825;BME280;10573;50.936;6.978;2023-02-12T15:05:46;103350.81;;;13.30;58.45